sensor_id;sensor_type;location;lat;lon;timestamp;pressure;altitude;pressure_sealevel;temperature;humidity
7157;BME280;3620;49.862;8.758;2023-01-27T00:01:49;99636.41;;;1.61;100.00
7157;BME280;3620;49.862;8.758;2023-01-27T00:04:16;99643.28;;;1.73;100.00
7157;BME280;3620;49.862;8.758;2023-01-27T00:06:42;99642.41;;;1.74;100.00
7157;BME280;3620;49.862;8.758;2023-01-27T00:09:09;99636.25;;;1.96;100.00
7157;BME280;3620;49.862;8.758;2023-01-27T00:11:36;99626.75;;;1.95;100.00
7157;BME280;3620;49.862;8.758;2023-01-27T00:14:21;99626.69;;;2.10;100.00
7157;BME280;3620;49.862;8.758;2023-01-27T00:16:48;99638.91;;;1.84;100.00
7157;BME280;3620;49.862;8.758;2023-01-27T00:19:15;99639.78;;;1.81;100.00
7157;BME280;3620;49.862;8.758;2023-01-27T00:21:44;99634.69;;;1.57;100.00
7157;BME280;3620;49.862;8.758;2023-01-27T00:24:27;99628.66;;;1.51;100.00
7157;BME280;3620;49.862;8.758;2023-01-27T00:27:04;99628.69;;;1.41;100.00
7157;BME280;3620;49.862;8.758;2023-01-27T00:29:34;99624.31;;;1.59;100.00
7157;BME280;3620;49.862;8.758;2023-01-27T00:32:01;99619.13;;;1.59;100.00
7157;BME280;3620;49.862;8.758;2023-01-27T00:34:45;99620.94;;;1.40;100.00
7157;BME280;3620;49.862;8.758;2023-01-27T00:37:11;99618.34;;;1.32;100.00
7157;BME280;3620;49.862;8.758;2023-01-27T00:39:38;99614.91;;;1.21;100.00
7157;BME280;3620;49.862;8.758;2023-01-27T00:42:04;99620.09;;;1.30;100.00
7157;BME280;3620;49.862;8.758;2023-01-27T00:44:31;99620.09;;;1.24;100.00
7157;BME280;3620;49.862;8.758;2023-01-27T00:46:59;99620.09;;;1.30;100.00
7157;BME280;3620;49.862;8.758;2023-01-27T00:49:25;99618.31;;;1.41;100.00
7157;BME280;3620;49.862;8.758;2023-01-27T00:51:52;99615.69;;;1.55;100.00
7157;BME280;3620;49.862;8.758;2023-01-27T00:54:19;99618.34;;;1.20;100.00
7157;BME280;3620;49.862;8.758;2023-01-27T00:56:46;99620.97;;;1.19;100.00
7157;BME280;3620;49.862;8.758;2023-01-27T00:59:12;99614.88;;;1.39;100.00
7157;BME280;3620;49.862;8.758;2023-01-27T01:01:39;99613.09;;;1.54;100.00
7157;BME280;3620;49.862;8.758;2023-01-27T01:04:07;99624.28;;;1.63;100.00
7157;BME280;3620;49.862;8.758;2023-01-27T01:06:33;99619.03;;;1.78;100.00
7157;BME280;3620;49.862;8.758;2023-01-27T01:09:00;99623.47;;;1.44;100.00
7157;BME280;3620;49.862;8.758;2023-01-27T01:11:26;99618.25;;;1.63;100.00
7157;BME280;3620;49.862;8.758;2023-01-27T01:13:53;99625.09;;;1.79;100.00
7157;BME280;3620;49.862;8.758;2023-01-27T01:16:21;99629.47;;;1.66;100.00
7157;BME280;3620;49.862;8.758;2023-01-27T01:18:48;99637.31;;;1.40;100.00
7157;BME280;3620;49.862;8.758;2023-01-27T01:21:16;99626.91;;;1.56;100.00
7157;BME280;3620;49.862;8.758;2023-01-27T01:23:44;99637.19;;;1.83;100.00
7157;BME280;3620;49.862;8.758;2023-01-27T01:26:12;99642.41;;;1.77;100.00
7157;BME280;3620;49.862;8.758;2023-01-27T01:28:39;99634.66;;;1.66;100.00
7157;BME280;3620;49.862;8.758;2023-01-27T01:31:07;99631.09;;;1.94;100.00
7157;BME280;3620;49.862;8.758;2023-01-27T01:33:35;99629.34;;;1.96;100.00
7157;BME280;3620;49.862;8.758;2023-01-27T01:36:05;99638.91;;;1.82;100.00
7157;BME280;3620;49.862;8.758;2023-01-27T01:38:33;99643.19;;;1.94;100.00
7157;BME280;3620;49.862;8.758;2023-01-27T01:41:00;99645.78;;;1.94;100.00
7157;BME280;3620;49.862;8.758;2023-01-27T01:43:26;99637.09;;;2.01;100.00
7157;BME280;3620;49.862;8.758;2023-01-27T01:45:54;99637.09;;;2.04;100.00
7157;BME280;3620;49.862;8.758;2023-01-27T01:48:29;99631.81;;;2.19;100.00
7157;BME280;3620;49.862;8.758;2023-01-27T01:50:59;99634.44;;;2.16;100.00
7157;BME280;3620;49.862;8.758;2023-01-27T01:53:32;99631.88;;;2.10;100.00
7157;BME280;3620;49.862;8.758;2023-01-27T01:56:06;99628.44;;;2.05;100.00
7157;BME280;3620;49.862;8.758;2023-01-27T01:58:35;99631.09;;;1.97;100.00
7157;BME280;3620;49.862;8.758;2023-01-27T02:01:03;99624.94;;;2.09;100.00
7157;BME280;3620;49.862;8.758;2023-01-27T02:03:32;99612.75;;;2.26;100.00
7157;BME280;3620;49.862;8.758;2023-01-27T02:05:59;99619.78;;;2.03;100.00
7157;BME280;3620;49.862;8.758;2023-01-27T02:08:28;99618.94;;;2.02;100.00
7157;BME280;3620;49.862;8.758;2023-01-27T02:10:56;99616.31;;;2.10;100.00
7157;BME280;3620;49.862;8.758;2023-01-27T02:13:24;99612.13;;;1.76;100.00
7157;BME280;3620;49.862;8.758;2023-01-27T02:15:52;99616.47;;;1.80;100.00
7157;BME280;3620;49.862;8.758;2023-01-27T02:18:20;99607.88;;;1.63;100.00
7157;BME280;3620;49.862;8.758;2023-01-27T02:20:48;99599.97;;;1.90;100.00
7157;BME280;3620;49.862;8.758;2023-01-27T02:23:37;99611.28;;;1.77;100.00
7157;BME280;3620;49.862;8.758;2023-01-27T02:26:08;99604.41;;;1.70;100.00
7157;BME280;3620;49.862;8.758;2023-01-27T02:28:36;99604.44;;;1.61;100.00
7157;BME280;3620;49.862;8.758;2023-01-27T02:31:03;99602.63;;;1.81;100.00
7157;BME280;3620;49.862;8.758;2023-01-27T02:33:29;99600.88;;;1.86;100.00
7157;BME280;3620;49.862;8.758;2023-01-27T02:36:00;99613.00;;;1.81;100.00
7157;BME280;3620;49.862;8.758;2023-01-27T02:38:31;99614.72;;;1.79;100.00
7157;BME280;3620;49.862;8.758;2023-01-27T02:41:04;99616.56;;;1.51;100.00
7157;BME280;3620;49.862;8.758;2023-01-27T02:43:34;99622.53;;;1.71;100.00
7157;BME280;3620;49.862;8.758;2023-01-27T02:46:01;99629.41;;;1.89;100.00
7157;BME280;3620;49.862;8.758;2023-01-27T02:48:27;99621.53;;;2.02;100.00
7157;BME280;3620;49.862;8.758;2023-01-27T02:50:54;99621.59;;;1.95;100.00
7157;BME280;3620;49.862;8.758;2023-01-27T02:53:20;99624.13;;;2.01;100.00
7157;BME280;3620;49.862;8.758;2023-01-27T02:55:47;99635.47;;;1.76;100.00
7157;BME280;3620;49.862;8.758;2023-01-27T02:58:13;99626.88;;;1.65;100.00
7157;BME280;3620;49.862;8.758;2023-01-27T03:00:42;99627.63;;;1.89;100.00
7157;BME280;3620;49.862;8.758;2023-01-27T03:03:08;99626.78;;;1.92;100.00
7157;BME280;3620;49.862;8.758;2023-01-27T03:05:35;99629.41;;;1.89;100.00
7157;BME280;3620;49.862;8.758;2023-01-27T03:08:01;99612.03;;;2.01;100.00
7157;BME280;3620;49.862;8.758;2023-01-27T03:10:28;99622.44;;;1.97;100.00
7157;BME280;3620;49.862;8.758;2023-01-27T03:12:54;99630.22;;;2.00;100.00
7157;BME280;3620;49.862;8.758;2023-01-27T03:15:21;99633.66;;;1.96;100.00
7157;BME280;3620;49.862;8.758;2023-01-27T03:18:08;99624.09;;;2.10;100.00
7157;BME280;3620;49.862;8.758;2023-01-27T03:20:35;99638.81;;;2.11;100.00
7157;BME280;3620;49.862;8.758;2023-01-27T03:23:02;99636.13;;;2.23;100.00
7157;BME280;3620;49.862;8.758;2023-01-27T03:25:28;99637.03;;;2.16;100.00
7157;BME280;3620;49.862;8.758;2023-01-27T03:27:55;99631.00;;;2.12;100.00
7157;BME280;3620;49.862;8.758;2023-01-27T03:30:22;99637.78;;;2.32;100.00
7157;BME280;3620;49.862;8.758;2023-01-27T03:32:48;99641.28;;;2.31;100.00
7157;BME280;3620;49.862;8.758;2023-01-27T03:35:16;99633.44;;;2.34;100.00
7157;BME280;3620;49.862;8.758;2023-01-27T03:37:43;99635.28;;;2.21;100.00
7157;BME280;3620;49.862;8.758;2023-01-27T03:40:27;99628.28;;;2.32;100.00
7157;BME280;3620;49.862;8.758;2023-01-27T03:43:11;99637.03;;;2.16;100.00
7157;BME280;3620;49.862;8.758;2023-01-27T03:45:55;99630.97;;;2.14;100.00
7157;BME280;3620;49.862;8.758;2023-01-27T03:48:39;99634.44;;;2.17;100.00
7157;BME280;3620;49.862;8.758;2023-01-27T03:51:08;99637.84;;;2.22;100.00
7157;BME280;3620;49.862;8.758;2023-01-27T03:53:36;99638.84;;;1.99;100.00
7157;BME280;3620;49.862;8.758;2023-01-27T03:56:03;99637.06;;;2.07;100.00
7157;BME280;3620;49.862;8.758;2023-01-27T03:58:32;99637.97;;;2.04;100.00
7157;BME280;3620;49.862;8.758;2023-01-27T04:01:01;99642.25;;;2.13;100.00
7157;BME280;3620;49.862;8.758;2023-01-27T04:03:30;99638.81;;;2.11;100.00
7157;BME280;3620;49.862;8.758;2023-01-27T04:06:17;99650.09;;;1.99;100.00
7157;BME280;3620;49.862;8.758;2023-01-27T04:09:02;99649.22;;;1.99;100.00
7157;BME280;3620;49.862;8.758;2023-01-27T04:11:29;99658.78;;;1.86;100.00
7157;BME280;3620;49.862;8.758;2023-01-27T04:14:13;99654.44;;;1.87;100.00
7157;BME280;3620;49.862;8.758;2023-01-27T04:16:40;99658.72;;;1.98;100.00
7157;BME280;3620;49.862;8.758;2023-01-27T04:19:08;99655.25;;;2.04;100.00
7157;BME280;3620;49.862;8.758;2023-01-27T04:21:37;99650.91;;;2.06;100.00
7157;BME280;3620;49.862;8.758;2023-01-27T04:24:04;99649.25;;;1.93;100.00
7157;BME280;3620;49.862;8.758;2023-01-27T04:26:33;99653.59;;;1.80;100.00
7157;BME280;3620;49.862;8.758;2023-01-27T04:29:00;99653.63;;;1.79;100.00
7157;BME280;3620;49.862;8.758;2023-01-27T04:31:26;99652.81;;;1.71;100.00
7157;BME280;3620;49.862;8.758;2023-01-27T04:33:53;99654.50;;;1.75;100.00
7157;BME280;3620;49.862;8.758;2023-01-27T04:36:20;99663.94;;;1.89;100.00
7157;BME280;3620;49.862;8.758;2023-01-27T04:38:48;99656.25;;;1.70;100.00
7157;BME280;3620;49.862;8.758;2023-01-27T04:41:14;99664.94;;;1.57;100.00
7157;BME280;3620;49.862;8.758;2023-01-27T04:43:41;99662.31;;;1.69;100.00
7157;BME280;3620;49.862;8.758;2023-01-27T04:46:07;99661.41;;;1.82;100.00
7157;BME280;3620;49.862;8.758;2023-01-27T04:48:34;99661.38;;;1.85;100.00
7157;BME280;3620;49.862;8.758;2023-01-27T04:51:00;99669.13;;;1.95;100.00
7157;BME280;3620;49.862;8.758;2023-01-27T04:53:27;99665.63;;;1.98;100.00
7157;BME280;3620;49.862;8.758;2023-01-27T04:56:00;99673.53;;;1.65;100.00
7157;BME280;3620;49.862;8.758;2023-01-27T04:58:27;99670.91;;;1.81;100.00
7157;BME280;3620;49.862;8.758;2023-01-27T05:00:53;99664.84;;;1.81;100.00
7157;BME280;3620;49.862;8.758;2023-01-27T05:03:20;99665.72;;;1.89;100.00
7157;BME280;3620;49.862;8.758;2023-01-27T05:05:46;99666.50;;;2.06;100.00
7157;BME280;3620;49.862;8.758;2023-01-27T05:08:13;99663.03;;;1.98;100.00
7157;BME280;3620;49.862;8.758;2023-01-27T05:10:41;99663.84;;;2.09;100.00
7157;BME280;3620;49.862;8.758;2023-01-27T05:13:10;99669.97;;;1.99;100.00
7157;BME280;3620;49.862;8.758;2023-01-27T05:15:36;99671.66;;;2.09;100.00
7157;BME280;3620;49.862;8.758;2023-01-27T05:18:03;99667.38;;;2.00;100.00
7157;BME280;3620;49.862;8.758;2023-01-27T05:20:29;99667.41;;;1.97;100.00
7157;BME280;3620;49.862;8.758;2023-01-27T05:22:57;99670.91;;;1.89;100.00
7157;BME280;3620;49.862;8.758;2023-01-27T05:25:40;99670.88;;;1.95;100.00
7157;BME280;3620;49.862;8.758;2023-01-27T05:28:07;99667.38;;;2.03;100.00
7157;BME280;3620;49.862;8.758;2023-01-27T05:30:34;99676.91;;;1.97;100.00
7157;BME280;3620;49.862;8.758;2023-01-27T05:33:01;99674.34;;;1.88;100.00
7157;BME280;3620;49.862;8.758;2023-01-27T05:35:28;99678.59;;;1.98;100.00
7157;BME280;3620;49.862;8.758;2023-01-27T05:37:56;99670.81;;;2.01;100.00
7157;BME280;3620;49.862;8.758;2023-01-27T05:40:23;99682.03;;;2.09;100.00
7157;BME280;3620;49.862;8.758;2023-01-27T05:42:50;99681.13;;;2.16;100.00
7157;BME280;3620;49.862;8.758;2023-01-27T05:45:17;99692.41;;;2.12;100.00
7157;BME280;3620;49.862;8.758;2023-01-27T05:47:48;99691.47;;;2.23;100.00
7157;BME280;3620;49.862;8.758;2023-01-27T05:50:16;99688.03;;;2.23;100.00
7157;BME280;3620;49.862;8.758;2023-01-27T05:52:43;99688.88;;;2.25;100.00
7157;BME280;3620;49.862;8.758;2023-01-27T05:55:09;99688.88;;;2.31;100.00
7157;BME280;3620;49.862;8.758;2023-01-27T05:57:36;99697.59;;;2.15;100.00
7157;BME280;3620;49.862;8.758;2023-01-27T06:00:03;99695.81;;;2.26;100.00
7157;BME280;3620;49.862;8.758;2023-01-27T06:02:29;99696.66;;;2.28;100.00
7157;BME280;3620;49.862;8.758;2023-01-27T06:04:57;99688.88;;;2.25;100.00
7157;BME280;3620;49.862;8.758;2023-01-27T06:07:24;99698.41;;;2.20;100.00
7157;BME280;3620;49.862;8.758;2023-01-27T06:09:50;99696.72;;;2.17;100.00
7157;BME280;3620;49.862;8.758;2023-01-27T06:12:17;99694.09;;;2.16;100.00
7157;BME280;3620;49.862;8.758;2023-01-27T06:14:43;99702.69;;;2.32;100.00
7157;BME280;3620;49.862;8.758;2023-01-27T06:17:10;99706.19;;;2.23;100.00
7157;BME280;3620;49.862;8.758;2023-01-27T06:19:36;99694.09;;;2.16;100.00
7157;BME280;3620;49.862;8.758;2023-01-27T06:22:04;99698.41;;;2.26;100.00
7157;BME280;3620;49.862;8.758;2023-01-27T06:24:31;99696.66;;;2.28;100.00
7157;BME280;3620;49.862;8.758;2023-01-27T06:26:57;99704.44;;;2.31;100.00
7157;BME280;3620;49.862;8.758;2023-01-27T06:29:24;99699.22;;;2.37;100.00
7157;BME280;3620;49.862;8.758;2023-01-27T06:31:50;99703.59;;;2.18;100.00
7157;BME280;3620;49.862;8.758;2023-01-27T06:34:17;99708.81;;;2.14;100.00
7157;BME280;3620;49.862;8.758;2023-01-27T06:36:43;99706.22;;;2.18;100.00
7157;BME280;3620;49.862;8.758;2023-01-27T06:39:11;99711.41;;;2.21;100.00
7157;BME280;3620;49.862;8.758;2023-01-27T06:41:38;99723.47;;;2.33;100.00
7157;BME280;3620;49.862;8.758;2023-01-27T06:44:04;99730.44;;;2.19;100.00
7157;BME280;3620;49.862;8.758;2023-01-27T06:46:31;99726.09;;;2.18;100.00
7157;BME280;3620;49.862;8.758;2023-01-27T06:48:58;99734.72;;;2.23;100.00
7157;BME280;3620;49.862;8.758;2023-01-27T06:51:24;99727.75;;;2.36;100.00
7157;BME280;3620;49.862;8.758;2023-01-27T06:53:51;99732.94;;;2.34;100.00
7157;BME280;3620;49.862;8.758;2023-01-27T06:56:19;99731.28;;;2.16;100.00
7157;BME280;3620;49.862;8.758;2023-01-27T06:58:45;99736.41;;;2.32;100.00
7157;BME280;3620;49.862;8.758;2023-01-27T07:01:12;99731.28;;;2.24;100.00
7157;BME280;3620;49.862;8.758;2023-01-27T07:03:38;99733.81;;;2.36;100.00
7157;BME280;3620;49.862;8.758;2023-01-27T07:06:05;99733.81;;;2.36;100.00
7157;BME280;3620;49.862;8.758;2023-01-27T07:08:32;99739.81;;;2.53;100.00
7157;BME280;3620;49.862;8.758;2023-01-27T07:11:01;99740.88;;;2.01;100.00
7157;BME280;3620;49.862;8.758;2023-01-27T07:13:29;99740.91;;;1.89;100.00
7157;BME280;3620;49.862;8.758;2023-01-27T07:15:55;99748.69;;;1.78;100.00
7157;BME280;3620;49.862;8.758;2023-01-27T07:18:22;99751.31;;;1.77;100.00
7157;BME280;3620;49.862;8.758;2023-01-27T07:20:49;99758.22;;;1.78;100.00
7157;BME280;3620;49.862;8.758;2023-01-27T07:23:15;99759.09;;;1.77;100.00
7157;BME280;3620;49.862;8.758;2023-01-27T07:25:42;99750.44;;;1.78;100.00
7157;BME280;3620;49.862;8.758;2023-01-27T07:28:09;99759.94;;;1.88;100.00
7157;BME280;3620;49.862;8.758;2023-01-27T07:30:37;99754.75;;;1.91;100.00
7157;BME280;3620;49.862;8.758;2023-01-27T07:33:04;99758.22;;;1.75;100.00
7157;BME280;3620;49.862;8.758;2023-01-27T07:35:31;99758.25;;;1.64;100.00
7157;BME280;3620;49.862;8.758;2023-01-27T07:37:58;99758.22;;;1.72;100.00
7157;BME280;3620;49.862;8.758;2023-01-27T07:40:24;99761.72;;;1.51;100.00
7157;BME280;3620;49.862;8.758;2023-01-27T07:42:51;99767.75;;;1.62;100.00
7157;BME280;3620;49.862;8.758;2023-01-27T07:45:17;99770.34;;;1.67;100.00
7157;BME280;3620;49.862;8.758;2023-01-27T07:47:45;99769.47;;;1.77;100.00
7157;BME280;3620;49.862;8.758;2023-01-27T07:50:12;99770.31;;;1.70;100.00
7157;BME280;3620;49.862;8.758;2023-01-27T07:52:38;99768.56;;;1.81;100.00
7157;BME280;3620;49.862;8.758;2023-01-27T07:55:05;99772.84;;;2.06;100.00
7157;BME280;3620;49.862;8.758;2023-01-27T07:57:32;99777.19;;;2.01;100.00
7157;BME280;3620;49.862;8.758;2023-01-27T07:59:59;99775.41;;;2.18;100.00
7157;BME280;3620;49.862;8.758;2023-01-27T08:02:25;99778.91;;;2.06;100.00
7157;BME280;3620;49.862;8.758;2023-01-27T08:04:54;99774.56;;;2.05;100.00
7157;BME280;3620;49.862;8.758;2023-01-27T08:07:20;99785.78;;;2.21;100.00
7157;BME280;3620;49.862;8.758;2023-01-27T08:09:47;99791.00;;;2.12;100.00
7157;BME280;3620;49.862;8.758;2023-01-27T08:12:13;99792.69;;;2.31;100.00
7157;BME280;3620;49.862;8.758;2023-01-27T08:14:40;99792.69;;;2.28;100.00
7157;BME280;3620;49.862;8.758;2023-01-27T08:17:07;99791.81;;;2.31;100.00
7157;BME280;3620;49.862;8.758;2023-01-27T08:19:33;99790.13;;;2.10;100.00
7157;BME280;3620;49.862;8.758;2023-01-27T08:22:01;99784.91;;;2.27;100.00
7157;BME280;3620;49.862;8.758;2023-01-27T08:24:27;99792.72;;;2.10;100.00
7157;BME280;3620;49.862;8.758;2023-01-27T08:26:54;99796.16;;;2.18;100.00
7157;BME280;3620;49.862;8.758;2023-01-27T08:29:21;99790.13;;;2.19;100.00
7157;BME280;3620;49.862;8.758;2023-01-27T08:31:48;99787.50;;;2.23;100.00
7157;BME280;3620;49.862;8.758;2023-01-27T08:34:14;99800.41;;;2.36;100.00
7157;BME280;3620;49.862;8.758;2023-01-27T08:36:41;99795.22;;;2.46;100.00
7157;BME280;3620;49.862;8.758;2023-01-27T08:39:09;99804.75;;;2.38;100.00
7157;BME280;3620;49.862;8.758;2023-01-27T08:41:36;99803.81;;;2.56;100.00
7157;BME280;3620;49.862;8.758;2023-01-27T08:44:03;99809.00;;;2.59;100.00
7157;BME280;3620;49.862;8.758;2023-01-27T08:46:30;99816.72;;;2.72;100.00
7157;BME280;3620;49.862;8.758;2023-01-27T08:48:56;99817.56;;;2.79;100.00
7157;BME280;3620;49.862;8.758;2023-01-27T08:51:23;99816.66;;;2.87;100.00
7157;BME280;3620;49.862;8.758;2023-01-27T08:53:49;99811.50;;;2.81;100.00
7157;BME280;3620;49.862;8.758;2023-01-27T08:56:17;99823.63;;;2.79;100.00
7157;BME280;3620;49.862;8.758;2023-01-27T08:58:44;99817.59;;;2.73;100.00
7157;BME280;3620;49.862;8.758;2023-01-27T09:01:12;99825.38;;;2.77;100.00
7157;BME280;3620;49.862;8.758;2023-01-27T09:03:39;99821.78;;;3.00;100.00
7157;BME280;3620;49.862;8.758;2023-01-27T09:06:07;99827.03;;;2.87;100.00
7157;BME280;3620;49.862;8.758;2023-01-27T09:08:34;99819.09;;;3.15;100.00
7157;BME280;3620;49.862;8.758;2023-01-27T09:11:07;99819.88;;;3.29;100.00
7157;BME280;3620;49.862;8.758;2023-01-27T09:13:35;99828.09;;;2.41;100.00
7157;BME280;3620;49.862;8.758;2023-01-27T09:16:01;99839.34;;;2.43;100.00
7157;BME280;3620;49.862;8.758;2023-01-27T09:18:28;99835.03;;;2.39;100.00
7157;BME280;3620;49.862;8.758;2023-01-27T09:20:55;99835.06;;;2.38;100.00
7157;BME280;3620;49.862;8.758;2023-01-27T09:23:21;99838.53;;;2.18;100.00
7157;BME280;3620;49.862;8.758;2023-01-27T09:25:48;99845.47;;;2.15;100.00
7157;BME280;3620;49.862;8.758;2023-01-27T09:28:14;99845.44;;;2.35;100.00
7157;BME280;3620;49.862;8.758;2023-01-27T09:30:43;99840.19;;;2.47;100.00
7157;BME280;3620;49.862;8.758;2023-01-27T09:33:11;99835.03;;;2.42;100.00
7157;BME280;3620;49.862;8.758;2023-01-27T09:35:40;99831.53;;;2.45;100.00
7157;BME280;3620;49.862;8.758;2023-01-27T09:38:09;99840.97;;;2.74;100.00
7157;BME280;3620;49.862;8.758;2023-01-27T09:40:49;99840.09;;;2.69;100.00
7157;BME280;3620;49.862;8.758;2023-01-27T09:43:42;99843.56;;;2.67;100.00
7157;BME280;3620;49.862;8.758;2023-01-27T09:49:27;99852.97;;;2.96;100.00
7157;BME280;3620;49.862;8.758;2023-01-27T09:52:09;99851.22;;;2.98;100.00
7157;BME280;3620;49.862;8.758;2023-01-27T09:54:50;99859.88;;;3.07;100.00
7157;BME280;3620;49.862;8.758;2023-01-27T09:57:24;99856.47;;;2.95;100.00
7157;BME280;3620;49.862;8.758;2023-01-27T10:00:10;99847.81;;;2.87;100.00
7157;BME280;3620;49.862;8.758;2023-01-27T10:03:01;99844.34;;;2.87;100.00
7157;BME280;3620;49.862;8.758;2023-01-27T10:05:53;99845.97;;;3.11;100.00
7157;BME280;3620;49.862;8.758;2023-01-27T10:08:52;99839.09;;;3.01;100.00
7157;BME280;3620;49.862;8.758;2023-01-27T10:11:27;99832.88;;;3.29;100.00
7157;BME280;3620;49.862;8.758;2023-01-27T10:14:04;99835.25;;;3.56;100.00
7157;BME280;3620;49.862;8.758;2023-01-27T10:16:45;99829.22;;;3.52;100.00
7157;BME280;3620;49.862;8.758;2023-01-27T10:19:29;99831.81;;;3.54;100.00
7157;BME280;3620;49.862;8.758;2023-01-27T10:22:07;99836.88;;;3.69;100.00
7157;BME280;3620;49.862;8.758;2023-01-27T10:24:46;99841.13;;;3.82;100.00
7157;BME280;3620;49.862;8.758;2023-01-27T10:27:21;99826.38;;;3.84;100.00
7157;BME280;3620;49.862;8.758;2023-01-27T10:29:56;99834.88;;;3.98;100.00
7157;BME280;3620;49.862;8.758;2023-01-27T10:32:25;99828.88;;;3.92;100.00
7157;BME280;3620;49.862;8.758;2023-01-27T10:34:59;99827.03;;;4.03;100.00
7157;BME280;3620;49.862;8.758;2023-01-27T10:37:35;99828.00;;;3.94;100.00
7157;BME280;3620;49.862;8.758;2023-01-27T10:40:10;99824.53;;;3.92;100.00
7157;BME280;3620;49.862;8.758;2023-01-27T10:42:43;99821.16;;;3.83;100.00
7157;BME280;3620;49.862;8.758;2023-01-27T10:45:27;99822.66;;;4.08;100.00
7157;BME280;3620;49.862;8.758;2023-01-27T10:48:15;99815.47;;;4.29;100.00
7157;BME280;3620;49.862;8.758;2023-01-27T10:50:45;99818.09;;;4.29;100.00
7157;BME280;3620;49.862;8.758;2023-01-27T10:53:18;99820.50;;;4.47;100.00
7157;BME280;3620;49.862;8.758;2023-01-27T10:55:53;99816.94;;;4.55;100.00
7157;BME280;3620;49.862;8.758;2023-01-27T10:58:31;99821.16;;;4.63;100.00
7157;BME280;3620;49.862;8.758;2023-01-27T11:01:03;99815.28;;;4.47;100.00
7157;BME280;3620;49.862;8.758;2023-01-27T11:03:34;99806.50;;;4.58;99.67
7157;BME280;3620;49.862;8.758;2023-01-27T11:06:07;99798.50;;;4.70;98.91
7157;BME280;3620;49.862;8.758;2023-01-27T11:08:40;99804.53;;;4.75;98.43
7157;BME280;3620;49.862;8.758;2023-01-27T11:11:08;99801.81;;;4.82;97.76
7157;BME280;3620;49.862;8.758;2023-01-27T11:13:58;99802.72;;;4.80;97.44
7157;BME280;3620;49.862;8.758;2023-01-27T11:16:31;99806.34;;;4.67;96.21
7157;BME280;3620;49.862;8.758;2023-01-27T11:19:02;99804.38;;;4.85;95.42
7157;BME280;3620;49.862;8.758;2023-01-27T11:21:36;99803.31;;;4.98;94.28
7157;BME280;3620;49.862;8.758;2023-01-27T11:24:15;99801.47;;;5.08;91.57
7157;BME280;3620;49.862;8.758;2023-01-27T11:26:50;99791.91;;;5.07;90.90
7157;BME280;3620;49.862;8.758;2023-01-27T11:29:25;99800.72;;;5.00;91.89
7157;BME280;3620;49.862;8.758;2023-01-27T11:31:57;99798.94;;;5.02;90.68
7157;BME280;3620;49.862;8.758;2023-01-27T11:34:32;99795.59;;;4.92;92.72
7157;BME280;3620;49.862;8.758;2023-01-27T11:37:03;99806.06;;;4.91;91.45
7157;BME280;3620;49.862;8.758;2023-01-27T11:39:39;99805.09;;;4.96;89.51
7157;BME280;3620;49.862;8.758;2023-01-27T11:42:07;99797.19;;;5.04;88.68
7157;BME280;3620;49.862;8.758;2023-01-27T11:44:35;99809.09;;;5.20;87.91
7157;BME280;3620;49.862;8.758;2023-01-27T11:47:04;99797.06;;;5.13;84.47
7157;BME280;3620;49.862;8.758;2023-01-27T11:49:35;99798.16;;;4.97;85.68
7157;BME280;3620;49.862;8.758;2023-01-27T11:52:10;99796.34;;;5.02;85.88
7157;BME280;3620;49.862;8.758;2023-01-27T11:54:43;99795.78;;;4.79;85.66
7157;BME280;3620;49.862;8.758;2023-01-27T11:57:17;99791.38;;;4.84;85.94
7157;BME280;3620;49.862;8.758;2023-01-27T11:59:46;99795.03;;;4.71;85.85
7157;BME280;3620;49.862;8.758;2023-01-27T12:02:23;99790.34;;;4.94;84.94
7157;BME280;3620;49.862;8.758;2023-01-27T12:04:57;99797.44;;;4.86;85.43
7157;BME280;3620;49.862;8.758;2023-01-27T12:07:34;99787.75;;;4.95;85.88
7157;BME280;3620;49.862;8.758;2023-01-27T12:10:21;99794.03;;;4.78;86.64
7157;BME280;3620;49.862;8.758;2023-01-27T12:12:48;99790.44;;;4.88;87.26
7157;BME280;3620;49.862;8.758;2023-01-27T12:15:16;99789.59;;;4.89;87.01
7157;BME280;3620;49.862;8.758;2023-01-27T12:17:46;99782.56;;;4.92;86.40
7157;BME280;3620;49.862;8.758;2023-01-27T12:20:25;99779.88;;;5.00;85.32
7157;BME280;3620;49.862;8.758;2023-01-27T12:22:56;99780.06;;;4.85;86.45
7157;BME280;3620;49.862;8.758;2023-01-27T12:25:28;99779.19;;;4.86;87.64
7157;BME280;3620;49.862;8.758;2023-01-27T12:27:58;99784.56;;;4.75;89.03
7157;BME280;3620;49.862;8.758;2023-01-27T12:30:27;99785.22;;;4.91;87.96
7157;BME280;3620;49.862;8.758;2023-01-27T12:32:55;99782.34;;;5.07;88.38
7157;BME280;3620;49.862;8.758;2023-01-27T12:35:25;99776.56;;;4.89;88.11
7157;BME280;3620;49.862;8.758;2023-01-27T12:37:56;99773.81;;;4.96;89.28
7157;BME280;3620;49.862;8.758;2023-01-27T12:40:26;99781.47;;;5.07;88.16
7157;BME280;3620;49.862;8.758;2023-01-27T12:43:09;99774.16;;;5.33;86.92
7157;BME280;3620;49.862;8.758;2023-01-27T12:45:38;99774.84;;;5.44;86.29
7157;BME280;3620;49.862;8.758;2023-01-27T12:48:23;99774.81;;;5.46;84.22
7157;BME280;3620;49.862;8.758;2023-01-27T12:50:55;99780.06;;;5.44;85.01
7157;BME280;3620;49.862;8.758;2023-01-27T12:53:29;99777.53;;;5.38;84.72
7157;BME280;3620;49.862;8.758;2023-01-27T12:55:59;99774.16;;;5.33;85.94
7157;BME280;3620;49.862;8.758;2023-01-27T12:58:30;99779.50;;;5.24;87.45
7157;BME280;3620;49.862;8.758;2023-01-27T13:00:59;99768.25;;;5.22;86.76
7157;BME280;3620;49.862;8.758;2023-01-27T13:03:26;99766.47;;;5.22;88.27
7157;BME280;3620;49.862;8.758;2023-01-27T13:05:55;99763.88;;;5.21;87.83
7157;BME280;3620;49.862;8.758;2023-01-27T13:08:24;99769.22;;;5.15;88.60
7157;BME280;3620;49.862;8.758;2023-01-27T13:10:54;99766.66;;;5.10;88.71
7157;BME280;3620;49.862;8.758;2023-01-27T13:13:24;99766.88;;;4.97;90.06
7157;BME280;3620;49.862;8.758;2023-01-27T13:15:54;99766.03;;;4.95;88.37
7157;BME280;3620;49.862;8.758;2023-01-27T13:18:22;99761.56;;;5.03;88.86
7157;BME280;3620;49.862;8.758;2023-01-27T13:20:51;99768.44;;;5.08;89.11
7157;BME280;3620;49.862;8.758;2023-01-27T13:23:22;99763.22;;;5.08;88.99
7157;BME280;3620;49.862;8.758;2023-01-27T13:25:52;99767.91;;;4.82;90.51
7157;BME280;3620;49.862;8.758;2023-01-27T13:28:24;99778.25;;;4.90;90.69
7157;BME280;3620;49.862;8.758;2023-01-27T13:30:56;99776.47;;;4.95;90.59
7157;BME280;3620;49.862;8.758;2023-01-27T13:33:30;99780.72;;;4.99;90.39
7157;BME280;3620;49.862;8.758;2023-01-27T13:36:05;99782.59;;;4.91;90.57
7157;BME280;3620;49.862;8.758;2023-01-27T13:38:39;99777.41;;;4.88;90.44
7157;BME280;3620;49.862;8.758;2023-01-27T13:41:14;99774.00;;;4.83;90.58
7157;BME280;3620;49.862;8.758;2023-01-27T13:43:50;99775.78;;;4.81;90.69